sensor_id;sensor_type;location;lat;lon;timestamp;P1;durP1;ratioP1;P2;durP2;ratioP2
83814;SDS011;73829;53.826;-3.034;2024-01-10T00:01:08;3.60;;;0.80;;
83814;SDS011;73829;53.826;-3.034;2024-01-10T00:03:46;3.40;;;0.90;;
83814;SDS011;73829;53.826;-3.034;2024-01-10T00:06:17;2.30;;;0.80;;
83814;SDS011;73829;53.826;-3.034;2024-01-10T00:08:48;2.70;;;0.80;;
83814;SDS011;73829;53.826;-3.034;2024-01-10T00:11:19;3.60;;;0.70;;
83814;SDS011;73829;53.826;-3.034;2024-01-10T00:13:50;3.50;;;0.70;;
83814;SDS011;73829;53.826;-3.034;2024-01-10T00:16:27;2.80;;;0.60;;
83814;SDS011;73829;53.826;-3.034;2024-01-10T00:18:58;3.10;;;1.00;;
83814;SDS011;73829;53.826;-3.034;2024-01-10T00:21:29;3.70;;;0.80;;
83814;SDS011;73829;53.826;-3.034;2024-01-10T00:24:00;1.90;;;0.60;;
83814;SDS011;73829;53.826;-3.034;2024-01-10T00:26:32;2.10;;;0.70;;
83814;SDS011;73829;53.826;-3.034;2024-01-10T00:29:03;3.00;;;0.80;;
83814;SDS011;73829;53.826;-3.034;2024-01-10T00:31:34;2.20;;;0.70;;
83814;SDS011;73829;53.826;-3.034;2024-01-10T00:36:34;2.20;;;0.70;;
83814;SDS011;73829;53.826;-3.034;2024-01-10T00:41:34;2.00;;;0.60;;
83814;SDS011;73829;53.826;-3.034;2024-01-10T00:46:35;2.00;;;0.60;;
83814;SDS011;73829;53.826;-3.034;2024-01-10T00:51:35;2.50;;;0.60;;
83814;SDS011;73829;53.826;-3.034;2024-01-10T00:54:06;2.10;;;0.70;;
83814;SDS011;73829;53.826;-3.034;2024-01-10T00:56:37;2.90;;;0.80;;
83814;SDS011;73829;53.826;-3.034;2024-01-10T01:01:38;2.20;;;0.70;;
83814;SDS011;73829;53.826;-3.034;2024-01-10T01:06:38;1.80;;;0.70;;
83814;SDS011;73829;53.826;-3.034;2024-01-10T01:09:09;2.30;;;0.50;;
83814;SDS011;73829;53.826;-3.034;2024-01-10T01:11:43;2.00;;;0.90;;
83814;SDS011;73829;53.826;-3.034;2024-01-10T01:14:14;2.50;;;0.60;;
83814;SDS011;73829;53.826;-3.034;2024-01-10T01:16:46;1.60;;;0.50;;
83814;SDS011;73829;53.826;-3.034;2024-01-10T01:21:46;1.80;;;0.50;;
83814;SDS011;73829;53.826;-3.034;2024-01-10T01:24:17;2.40;;;0.60;;
83814;SDS011;73829;53.826;-3.034;2024-01-10T01:26:48;1.70;;;0.60;;
83814;SDS011;73829;53.826;-3.034;2024-01-10T01:29:20;2.20;;;0.60;;
83814;SDS011;73829;53.826;-3.034;2024-01-10T01:31:51;2.50;;;0.70;;
83814;SDS011;73829;53.826;-3.034;2024-01-10T01:34:22;1.70;;;0.60;;
83814;SDS011;73829;53.826;-3.034;2024-01-10T01:36:53;1.70;;;0.60;;
83814;SDS011;73829;53.826;-3.034;2024-01-10T01:41:54;1.80;;;0.60;;
83814;SDS011;73829;53.826;-3.034;2024-01-10T01:44:25;1.30;;;0.50;;
83814;SDS011;73829;53.826;-3.034;2024-01-10T01:46:56;1.80;;;0.50;;
83814;SDS011;73829;53.826;-3.034;2024-01-10T01:49:28;1.40;;;0.50;;
83814;SDS011;73829;53.826;-3.034;2024-01-10T01:52:00;1.90;;;0.50;;
83814;SDS011;73829;53.826;-3.034;2024-01-10T01:54:31;2.10;;;0.50;;
83814;SDS011;73829;53.826;-3.034;2024-01-10T01:57:04;1.90;;;0.60;;
83814;SDS011;73829;53.826;-3.034;2024-01-10T01:59:35;2.50;;;0.60;;
83814;SDS011;73829;53.826;-3.034;2024-01-10T02:02:06;1.30;;;0.40;;
83814;SDS011;73829;53.826;-3.034;2024-01-10T02:04:38;1.60;;;0.50;;
83814;SDS011;73829;53.826;-3.034;2024-01-10T02:07:09;1.90;;;0.40;;
83814;SDS011;73829;53.826;-3.034;2024-01-10T02:09:41;2.00;;;0.70;;
83814;SDS011;73829;53.826;-3.034;2024-01-10T02:12:12;1.10;;;0.30;;
83814;SDS011;73829;53.826;-3.034;2024-01-10T02:14:43;2.00;;;0.50;;
83814;SDS011;73829;53.826;-3.034;2024-01-10T02:17:14;1.30;;;0.40;;
83814;SDS011;73829;53.826;-3.034;2024-01-10T02:19:45;1.40;;;0.50;;
83814;SDS011;73829;53.826;-3.034;2024-01-10T02:27:23;1.30;;;0.40;;
83814;SDS011;73829;53.826;-3.034;2024-01-10T02:29:55;2.20;;;0.60;;
83814;SDS011;73829;53.826;-3.034;2024-01-10T02:32:28;2.60;;;0.40;;
83814;SDS011;73829;53.826;-3.034;2024-01-10T02:34:59;1.90;;;0.50;;
83814;SDS011;73829;53.826;-3.034;2024-01-10T02:37:30;2.70;;;0.50;;
83814;SDS011;73829;53.826;-3.034;2024-01-10T02:40:01;2.60;;;0.70;;
83814;SDS011;73829;53.826;-3.034;2024-01-10T02:42:35;2.10;;;0.80;;
83814;SDS011;73829;53.826;-3.034;2024-01-10T02:45:07;1.40;;;0.50;;
83814;SDS011;73829;53.826;-3.034;2024-01-10T02:47:38;1.20;;;0.40;;
83814;SDS011;73829;53.826;-3.034;2024-01-10T02:50:09;1.80;;;0.40;;
83814;SDS011;73829;53.826;-3.034;2024-01-10T02:52:41;1.60;;;0.50;;
83814;SDS011;73829;53.826;-3.034;2024-01-10T02:55:13;1.70;;;0.40;;
83814;SDS011;73829;53.826;-3.034;2024-01-10T02:57:44;1.30;;;0.40;;
83814;SDS011;73829;53.826;-3.034;2024-01-10T03:02:45;1.40;;;0.40;;
83814;SDS011;73829;53.826;-3.034;2024-01-10T03:05:16;1.90;;;0.50;;
83814;SDS011;73829;53.826;-3.034;2024-01-10T03:07:48;2.10;;;0.40;;
83814;SDS011;73829;53.826;-3.034;2024-01-10T03:10:19;1.10;;;0.40;;
83814;SDS011;73829;53.826;-3.034;2024-01-10T03:12:50;1.40;;;0.40;;
83814;SDS011;73829;53.826;-3.034;2024-01-10T03:15:22;1.80;;;0.60;;
83814;SDS011;73829;53.826;-3.034;2024-01-10T03:17:53;1.10;;;0.30;;
83814;SDS011;73829;53.826;-3.034;2024-01-10T03:20:25;1.10;;;0.40;;
83814;SDS011;73829;53.826;-3.034;2024-01-10T03:22:57;1.10;;;0.30;;
83814;SDS011;73829;53.826;-3.034;2024-01-10T03:25:28;2.30;;;0.50;;
83814;SDS011;73829;53.826;-3.034;2024-01-10T03:30:29;1.10;;;0.30;;
83814;SDS011;73829;53.826;-3.034;2024-01-10T03:33:00;1.60;;;0.50;;
83814;SDS011;73829;53.826;-3.034;2024-01-10T03:35:31;2.10;;;0.80;;
83814;SDS011;73829;53.826;-3.034;2024-01-10T03:40:32;0.90;;;0.20;;
83814;SDS011;73829;53.826;-3.034;2024-01-10T03:43:03;1.60;;;0.40;;
83814;SDS011;73829;53.826;-3.034;2024-01-10T03:45:34;1.70;;;0.40;;
83814;SDS011;73829;53.826;-3.034;2024-01-10T03:50:38;2.00;;;0.60;;
83814;SDS011;73829;53.826;-3.034;2024-01-10T03:53:09;1.00;;;0.20;;
83814;SDS011;73829;53.826;-3.034;2024-01-10T03:55:40;2.40;;;0.50;;
83814;SDS011;73829;53.826;-3.034;2024-01-10T03:58:12;0.60;;;0.30;;
83814;SDS011;73829;53.826;-3.034;2024-01-10T04:00:44;1.60;;;0.40;;
83814;SDS011;73829;53.826;-3.034;2024-01-10T04:03:15;0.70;;;0.30;;
83814;SDS011;73829;53.826;-3.034;2024-01-10T04:05:46;2.10;;;0.50;;
83814;SDS011;73829;53.826;-3.034;2024-01-10T04:08:17;1.10;;;0.40;;
83814;SDS011;73829;53.826;-3.034;2024-01-10T04:10:48;2.40;;;0.60;;
83814;SDS011;73829;53.826;-3.034;2024-01-10T04:13:19;2.00;;;0.50;;
83814;SDS011;73829;53.826;-3.034;2024-01-10T04:15:52;1.90;;;0.50;;
83814;SDS011;73829;53.826;-3.034;2024-01-10T04:18:23;1.20;;;0.40;;
83814;SDS011;73829;53.826;-3.034;2024-01-10T04:20:55;1.70;;;0.40;;
83814;SDS011;73829;53.826;-3.034;2024-01-10T04:23:26;2.60;;;0.40;;
83814;SDS011;73829;53.826;-3.034;2024-01-10T04:25:58;1.40;;;0.40;;
83814;SDS011;73829;53.826;-3.034;2024-01-10T04:28:29;1.10;;;0.30;;
83814;SDS011;73829;53.826;-3.034;2024-01-10T04:31:00;2.80;;;0.60;;
83814;SDS011;73829;53.826;-3.034;2024-01-10T04:33:31;1.40;;;0.50;;
83814;SDS011;73829;53.826;-3.034;2024-01-10T04:36:03;1.90;;;0.40;;
83814;SDS011;73829;53.826;-3.034;2024-01-10T04:38:35;1.70;;;0.40;;
83814;SDS011;73829;53.826;-3.034;2024-01-10T04:41:06;1.50;;;0.40;;
83814;SDS011;73829;53.826;-3.034;2024-01-10T04:43:37;1.80;;;0.40;;
83814;SDS011;73829;53.826;-3.034;2024-01-10T04:46:08;1.80;;;0.50;;
83814;SDS011;73829;53.826;-3.034;2024-01-10T04:48:40;2.40;;;0.50;;
83814;SDS011;73829;53.826;-3.034;2024-01-10T04:51:11;1.90;;;0.40;;
83814;SDS011;73829;53.826;-3.034;2024-01-10T04:53:42;1.40;;;0.30;;
83814;SDS011;73829;53.826;-3.034;2024-01-10T04:56:13;1.10;;;0.30;;
83814;SDS011;73829;53.826;-3.034;2024-01-10T04:58:47;1.70;;;0.40;;
83814;SDS011;73829;53.826;-3.034;2024-01-10T05:01:18;1.70;;;0.40;;
83814;SDS011;73829;53.826;-3.034;2024-01-10T05:03:50;1.40;;;0.30;;
83814;SDS011;73829;53.826;-3.034;2024-01-10T05:06:21;2.20;;;0.50;;
83814;SDS011;73829;53.826;-3.034;2024-01-10T05:08:52;2.70;;;0.40;;
83814;SDS011;73829;53.826;-3.034;2024-01-10T05:11:26;1.90;;;0.60;;
83814;SDS011;73829;53.826;-3.034;2024-01-10T05:13:57;2.30;;;0.40;;
83814;SDS011;73829;53.826;-3.034;2024-01-10T05:16:28;1.40;;;0.40;;
83814;SDS011;73829;53.826;-3.034;2024-01-10T05:19:01;1.30;;;0.30;;
83814;SDS011;73829;53.826;-3.034;2024-01-10T05:21:32;2.00;;;0.50;;
83814;SDS011;73829;53.826;-3.034;2024-01-10T05:24:04;1.70;;;0.40;;
83814;SDS011;73829;53.826;-3.034;2024-01-10T05:26:35;2.30;;;0.70;;
83814;SDS011;73829;53.826;-3.034;2024-01-10T05:29:07;2.50;;;0.50;;
83814;SDS011;73829;53.826;-3.034;2024-01-10T05:31:38;2.20;;;0.50;;
83814;SDS011;73829;53.826;-3.034;2024-01-10T05:34:09;2.00;;;0.50;;
83814;SDS011;73829;53.826;-3.034;2024-01-10T05:36:40;2.00;;;0.50;;
83814;SDS011;73829;53.826;-3.034;2024-01-10T05:39:11;1.40;;;0.30;;
83814;SDS011;73829;53.826;-3.034;2024-01-10T05:41:43;1.40;;;0.50;;
83814;SDS011;73829;53.826;-3.034;2024-01-10T05:44:14;2.30;;;0.50;;
83814;SDS011;73829;53.826;-3.034;2024-01-10T05:49:15;2.10;;;0.50;;
83814;SDS011;73829;53.826;-3.034;2024-01-10T05:51:47;1.90;;;0.40;;
83814;SDS011;73829;53.826;-3.034;2024-01-10T05:54:18;2.10;;;0.40;;
83814;SDS011;73829;53.826;-3.034;2024-01-10T05:56:49;1.30;;;0.40;;
83814;SDS011;73829;53.826;-3.034;2024-01-10T06:01:50;1.60;;;0.30;;
83814;SDS011;73829;53.826;-3.034;2024-01-10T06:06:50;0.90;;;0.30;;
83814;SDS011;73829;53.826;-3.034;2024-01-10T06:09:22;1.40;;;0.50;;
83814;SDS011;73829;53.826;-3.034;2024-01-10T06:14:23;1.90;;;0.50;;
83814;SDS011;73829;53.826;-3.034;2024-01-10T06:16:54;1.20;;;0.30;;
83814;SDS011;73829;53.826;-3.034;2024-01-10T06:19:27;1.00;;;0.30;;
83814;SDS011;73829;53.826;-3.034;2024-01-10T06:21:59;1.10;;;0.40;;
83814;SDS011;73829;53.826;-3.034;2024-01-10T06:24:30;2.20;;;0.50;;
83814;SDS011;73829;53.826;-3.034;2024-01-10T06:29:30;2.00;;;0.50;;
83814;SDS011;73829;53.826;-3.034;2024-01-10T06:32:01;1.00;;;0.30;;
83814;SDS011;73829;53.826;-3.034;2024-01-10T06:34:37;0.70;;;0.20;;
83814;SDS011;73829;53.826;-3.034;2024-01-10T06:37:08;1.20;;;0.30;;
83814;SDS011;73829;53.826;-3.034;2024-01-10T06:39:39;1.70;;;0.40;;
83814;SDS011;73829;53.826;-3.034;2024-01-10T06:42:12;1.80;;;0.40;;
83814;SDS011;73829;53.826;-3.034;2024-01-10T06:44:43;1.60;;;0.50;;
83814;SDS011;73829;53.826;-3.034;2024-01-10T06:47:14;1.20;;;0.30;;
83814;SDS011;73829;53.826;-3.034;2024-01-10T06:52:15;1.30;;;0.40;;
83814;SDS011;73829;53.826;-3.034;2024-01-10T06:54:46;1.50;;;0.30;;
83814;SDS011;73829;53.826;-3.034;2024-01-10T06:57:17;1.30;;;0.40;;
83814;SDS011;73829;53.826;-3.034;2024-01-10T06:59:48;2.10;;;0.30;;
83814;SDS011;73829;53.826;-3.034;2024-01-10T07:02:20;1.80;;;0.40;;
83814;SDS011;73829;53.826;-3.034;2024-01-10T07:04:51;1.60;;;0.30;;
83814;SDS011;73829;53.826;-3.034;2024-01-10T07:09:52;0.80;;;0.30;;
83814;SDS011;73829;53.826;-3.034;2024-01-10T07:12:23;1.70;;;0.40;;
83814;SDS011;73829;53.826;-3.034;2024-01-10T07:17:24;1.00;;;0.50;;
83814;SDS011;73829;53.826;-3.034;2024-01-10T07:22:25;1.70;;;0.30;;
83814;SDS011;73829;53.826;-3.034;2024-01-10T07:24:56;1.70;;;0.40;;
83814;SDS011;73829;53.826;-3.034;2024-01-10T07:27:27;1.20;;;0.40;;
83814;SDS011;73829;53.826;-3.034;2024-01-10T07:29:58;0.90;;;0.40;;
83814;SDS011;73829;53.826;-3.034;2024-01-10T07:32:29;2.60;;;0.60;;
83814;SDS011;73829;53.826;-3.034;2024-01-10T07:37:30;1.60;;;0.50;;
83814;SDS011;73829;53.826;-3.034;2024-01-10T07:40:04;1.40;;;0.30;;
83814;SDS011;73829;53.826;-3.034;2024-01-10T07:42:37;1.20;;;0.30;;
83814;SDS011;73829;53.826;-3.034;2024-01-10T07:45:08;1.50;;;0.30;;
83814;SDS011;73829;53.826;-3.034;2024-01-10T07:47:40;1.90;;;0.40;;
83814;SDS011;73829;53.826;-3.034;2024-01-10T07:50:11;0.90;;;0.30;;
83814;SDS011;73829;53.826;-3.034;2024-01-10T07:52:42;2.00;;;0.50;;
83814;SDS011;73829;53.826;-3.034;2024-01-10T07:55:14;2.30;;;0.30;;
83814;SDS011;73829;53.826;-3.034;2024-01-10T07:57:45;1.30;;;0.30;;
83814;SDS011;73829;53.826;-3.034;2024-01-10T08:02:48;0.90;;;0.30;;
83814;SDS011;73829;53.826;-3.034;2024-01-10T08:07:48;1.00;;;0.30;;
83814;SDS011;73829;53.826;-3.034;2024-01-10T08:10:20;1.30;;;0.30;;
83814;SDS011;73829;53.826;-3.034;2024-01-10T08:12:51;2.00;;;0.50;;
83814;SDS011;73829;53.826;-3.034;2024-01-10T08:15:22;1.10;;;0.20;;
83814;SDS011;73829;53.826;-3.034;2024-01-10T08:17:53;1.30;;;0.30;;
83814;SDS011;73829;53.826;-3.034;2024-01-10T08:20:24;1.40;;;0.30;;
83814;SDS011;73829;53.826;-3.034;2024-01-10T08:22:55;0.80;;;0.20;;
83814;SDS011;73829;53.826;-3.034;2024-01-10T08:25:26;2.30;;;0.30;;
83814;SDS011;73829;53.826;-3.034;2024-01-10T08:27:57;1.00;;;0.20;;
83814;SDS011;73829;53.826;-3.034;2024-01-10T08:30:28;0.70;;;0.20;;
83814;SDS011;73829;53.826;-3.034;2024-01-10T08:33:00;1.50;;;0.30;;
83814;SDS011;73829;53.826;-3.034;2024-01-10T08:35:32;1.60;;;0.30;;
83814;SDS011;73829;53.826;-3.034;2024-01-10T08:40:35;1.30;;;0.40;;
83814;SDS011;73829;53.826;-3.034;2024-01-10T08:43:06;0.70;;;0.20;;
83814;SDS011;73829;53.826;-3.034;2024-01-10T08:48:07;1.80;;;0.40;;
83814;SDS011;73829;53.826;-3.034;2024-01-10T08:50:41;1.20;;;0.30;;
83814;SDS011;73829;53.826;-3.034;2024-01-10T08:53:14;1.60;;;0.40;;
83814;SDS011;73829;53.826;-3.034;2024-01-10T08:55:45;1.00;;;0.30;;
83814;SDS011;73829;53.826;-3.034;2024-01-10T08:58:16;0.90;;;0.30;;
83814;SDS011;73829;53.826;-3.034;2024-01-10T09:03:16;1.50;;;0.30;;
83814;SDS011;73829;53.826;-3.034;2024-01-10T09:05:48;1.20;;;0.30;;
83814;SDS011;73829;53.826;-3.034;2024-01-10T09:08:19;1.30;;;0.50;;
83814;SDS011;73829;53.826;-3.034;2024-01-10T09:13:20;2.00;;;0.40;;
83814;SDS011;73829;53.826;-3.034;2024-01-10T09:18:20;0.90;;;0.30;;
83814;SDS011;73829;53.826;-3.034;2024-01-10T09:20:51;1.60;;;0.30;;
83814;SDS011;73829;53.826;-3.034;2024-01-10T09:23:22;1.30;;;0.40;;
83814;SDS011;73829;53.826;-3.034;2024-01-10T09:25:55;1.30;;;0.40;;
83814;SDS011;73829;53.826;-3.034;2024-01-10T09:28:26;1.10;;;0.40;;
83814;SDS011;73829;53.826;-3.034;2024-01-10T09:30:57;2.10;;;0.60;;
83814;SDS011;73829;53.826;-3.034;2024-01-10T09:35:57;1.90;;;0.50;;
83814;SDS011;73829;53.826;-3.034;2024-01-10T09:38:28;2.00;;;0.50;;
83814;SDS011;73829;53.826;-3.034;2024-01-10T09:41:03;2.10;;;0.50;;
83814;SDS011;73829;53.826;-3.034;2024-01-10T09:43:35;2.00;;;0.50;;
83814;SDS011;73829;53.826;-3.034;2024-01-10T09:46:06;3.60;;;0.60;;
83814;SDS011;73829;53.826;-3.034;2024-01-10T09:48:38;1.90;;;0.50;;
83814;SDS011;73829;53.826;-3.034;2024-01-10T09:53:54;2.00;;;0.50;;
83814;SDS011;73829;53.826;-3.034;2024-01-10T09:56:28;1.70;;;0.50;;
83814;SDS011;73829;53.826;-3.034;2024-01-10T09:59:00;1.70;;;0.50;;
83814;SDS011;73829;53.826;-3.034;2024-01-10T10:01:34;1.50;;;0.50;;
83814;SDS011;73829;53.826;-3.034;2024-01-10T10:04:06;2.50;;;0.60;;
83814;SDS011;73829;53.826;-3.034;2024-01-10T10:06:40;2.00;;;0.60;;
83814;SDS011;73829;53.826;-3.034;2024-01-10T10:09:12;1.80;;;0.50;;
83814;SDS011;73829;53.826;-3.034;2024-01-10T10:11:47;2.50;;;0.50;;
83814;SDS011;73829;53.826;-3.034;2024-01-10T10:14:29;2.80;;;0.60;;
83814;SDS011;73829;53.826;-3.034;2024-01-10T10:20:02;2.00;;;0.60;;
83814;SDS011;73829;53.826;-3.034;2024-01-10T10:22:34;2.30;;;0.60;;
83814;SDS011;73829;53.826;-3.034;2024-01-10T10:25:06;1.40;;;0.50;;
83814;SDS011;73829;53.826;-3.034;2024-01-10T10:27:37;2.00;;;0.60;;
83814;SDS011;73829;53.826;-3.034;2024-01-10T10:30:11;2.20;;;0.50;;
83814;SDS011;73829;53.826;-3.034;2024-01-10T10:32:44;2.90;;;0.60;;
83814;SDS011;73829;53.826;-3.034;2024-01-10T10:35:16;2.20;;;0.50;;
83814;SDS011;73829;53.826;-3.034;2024-01-10T10:37:49;3.10;;;0.60;;
83814;SDS011;73829;53.826;-3.034;2024-01-10T10:40:22;1.90;;;0.50;;
83814;SDS011;73829;53.826;-3.034;2024-01-10T10:42:54;2.50;;;0.60;;
83814;SDS011;73829;53.826;-3.034;2024-01-10T10:45:26;1.70;;;0.40;;
83814;SDS011;73829;53.826;-3.034;2024-01-10T10:47:58;2.40;;;0.50;;
83814;SDS011;73829;53.826;-3.034;2024-01-10T10:50:32;1.80;;;0.50;;
83814;SDS011;73829;53.826;-3.034;2024-01-10T10:53:04;1.80;;;0.60;;
83814;SDS011;73829;53.826;-3.034;2024-01-10T10:55:36;1.90;;;0.70;;
83814;SDS011;73829;53.826;-3.034;2024-01-10T10:58:09;1.40;;;0.40;;
83814;SDS011;73829;53.826;-3.034;2024-01-10T11:00:42;1.90;;;0.50;;
83814;SDS011;73829;53.826;-3.034;2024-01-10T11:03:15;1.80;;;0.50;;
83814;SDS011;73829;53.826;-3.034;2024-01-10T11:05:47;2.10;;;0.50;;
83814;SDS011;73829;53.826;-3.034;2024-01-10T11:08:21;2.20;;;0.60;;
83814;SDS011;73829;53.826;-3.034;2024-01-10T11:10:54;1.80;;;0.50;;
83814;SDS011;73829;53.826;-3.034;2024-01-10T11:13:32;2.50;;;0.70;;
83814;SDS011;73829;53.826;-3.034;2024-01-10T11:16:21;2.80;;;0.50;;
83814;SDS011;73829;53.826;-3.034;2024-01-10T11:19:14;2.20;;;0.60;;
83814;SDS011;73829;53.826;-3.034;2024-01-10T11:22:08;1.30;;;0.40;;
83814;SDS011;73829;53.826;-3.034;2024-01-10T11:24:47;2.20;;;0.50;;
83814;SDS011;73829;53.826;-3.034;2024-01-10T11:27:19;1.70;;;0.50;;
83814;SDS011;73829;53.826;-3.034;2024-01-10T11:29:51;2.10;;;0.80;;
83814;SDS011;73829;53.826;-3.034;2024-01-10T11:32:24;1.90;;;0.70;;
83814;SDS011;73829;53.826;-3.034;2024-01-10T11:34:56;1.70;;;0.50;;
83814;SDS011;73829;53.826;-3.034;2024-01-10T11:37:38;1.10;;;0.30;;
83814;SDS011;73829;53.826;-3.034;2024-01-10T11:40:12;2.00;;;0.60;;
83814;SDS011;73829;53.826;-3.034;2024-01-10T11:42:46;1.50;;;0.40;;
83814;SDS011;73829;53.826;-3.034;2024-01-10T11:48:24;2.00;;;0.40;;
83814;SDS011;73829;53.826;-3.034;2024-01-10T11:53:39;1.60;;;0.50;;
83814;SDS011;73829;53.826;-3.034;2024-01-10T11:56:15;3.50;;;0.50;;
83814;SDS011;73829;53.826;-3.034;2024-01-10T11:58:56;2.00;;;0.70;;
83814;SDS011;73829;53.826;-3.034;2024-01-10T12:01:33;1.70;;;0.40;;
83814;SDS011;73829;53.826;-3.034;2024-01-10T12:04:04;2.30;;;0.60;;
83814;SDS011;73829;53.826;-3.034;2024-01-10T12:06:35;2.50;;;0.50;;
83814;SDS011;73829;53.826;-3.034;2024-01-10T12:09:07;2.20;;;0.50;;
83814;SDS011;73829;53.826;-3.034;2024-01-10T12:11:40;1.80;;;0.70;;
83814;SDS011;73829;53.826;-3.034;2024-01-10T12:14:11;2.60;;;0.60;;
83814;SDS011;73829;53.826;-3.034;2024-01-10T12:16:43;1.60;;;0.40;;
83814;SDS011;73829;53.826;-3.034;2024-01-10T12:19:15;2.00;;;0.60;;
83814;SDS011;73829;53.826;-3.034;2024-01-10T12:21:47;1.60;;;0.60;;
83814;SDS011;73829;53.826;-3.034;2024-01-10T12:24:20;1.70;;;0.50;;
83814;SDS011;73829;53.826;-3.034;2024-01-10T12:29:22;1.90;;;0.70;;
83814;SDS011;73829;53.826;-3.034;2024-01-10T12:31:55;2.40;;;0.50;;
83814;SDS011;73829;53.826;-3.034;2024-01-10T12:34:26;2.30;;;0.50;;
83814;SDS011;73829;53.826;-3.034;2024-01-10T12:36:57;1.80;;;0.50;;
83814;SDS011;73829;53.826;-3.034;2024-01-10T12:39:28;2.10;;;0.60;;
83814;SDS011;73829;53.826;-3.034;2024-01-10T12:41:59;2.40;;;0.60;;
83814;SDS011;73829;53.826;-3.034;2024-01-10T12:44:31;2.50;;;0.60;;
83814;SDS011;73829;53.826;-3.034;2024-01-10T12:47:02;2.50;;;0.50;;
83814;SDS011;73829;53.826;-3.034;2024-01-10T12:49:33;2.10;;;0.60;;
83814;SDS011;73829;53.826;-3.034;2024-01-10T12:52:05;2.70;;;0.70;;
83814;SDS011;73829;53.826;-3.034;2024-01-10T12:54:36;2.40;;;0.80;;
83814;SDS011;73829;53.826;-3.034;2024-01-10T12:57:08;2.30;;;0.80;;
83814;SDS011;73829;53.826;-3.034;2024-01-10T12:59:39;2.20;;;0.80;;
83814;SDS011;73829;53.826;-3.034;2024-01-10T13:02:10;1.80;;;0.60;;
83814;SDS011;73829;53.826;-3.034;2024-01-10T13:04:41;1.70;;;0.60;;
83814;SDS011;73829;53.826;-3.034;2024-01-10T13:07:12;2.20;;;0.70;;
83814;SDS011;73829;53.826;-3.034;2024-01-10T13:09:43;2.20;;;0.80;;
83814;SDS011;73829;53.826;-3.034;2024-01-10T13:14:44;2.00;;;0.80;;
83814;SDS011;73829;53.826;-3.034;2024-01-10T13:17:15;2.50;;;0.80;;
83814;SDS011;73829;53.826;-3.034;2024-01-10T13:19:47;3.70;;;0.90;;
83814;SDS011;73829;53.826;-3.034;2024-01-10T13:22:19;2.60;;;1.00;;
83814;SDS011;73829;53.826;-3.034;2024-01-10T13:24:50;2.70;;;1.00;;
83814;SDS011;73829;53.826;-3.034;2024-01-10T13:27:21;3.20;;;1.00;;
83814;SDS011;73829;53.826;-3.034;2024-01-10T13:32:22;6.00;;;1.40;;
83814;SDS011;73829;53.826;-3.034;2024-01-10T13:34:53;4.30;;;1.50;;
83814;SDS011;73829;53.826;-3.034;2024-01-10T13:37:24;3.70;;;1.50;;
83814;SDS011;73829;53.826;-3.034;2024-01-10T13:39:56;4.30;;;1.60;;
83814;SDS011;73829;53.826;-3.034;2024-01-10T13:42:28;20.30;;;2.50;;
83814;SDS011;73829;53.826;-3.034;2024-01-10T13:44:59;4.70;;;1.60;;
83814;SDS011;73829;53.826;-3.034;2024-01-10T13:47:31;4.40;;;1.80;;
83814;SDS011;73829;53.826;-3.034;2024-01-10T13:50:02;5.80;;;1.50;;
83814;SDS011;73829;53.826;-3.034;2024-01-10T13:52:33;5.80;;;1.40;;
83814;SDS011;73829;53.826;-3.034;2024-01-10T13:55:05;3.80;;;1.70;;
83814;SDS011;73829;53.826;-3.034;2024-01-10T13:57:37;4.10;;;1.70;;
83814;SDS011;73829;53.826;-3.034;2024-01-10T14:00:09;3.50;;;1.60;;
83814;SDS011;73829;53.826;-3.034;2024-01-10T14:02:42;4.40;;;1.60;;
83814;SDS011;73829;53.826;-3.034;2024-01-10T14:05:14;4.30;;;1.50;;
83814;SDS011;73829;53.826;-3.034;2024-01-10T14:07:45;6.10;;;1.50;;
83814;SDS011;73829;53.826;-3.034;2024-01-10T14:10:16;3.80;;;1.50;;
83814;SDS011;73829;53.826;-3.034;2024-01-10T14:12:47;4.40;;;1.60;;
83814;SDS011;73829;53.826;-3.034;2024-01-10T14:15:18;4.50;;;1.40;;
83814;SDS011;73829;53.826;-3.034;2024-01-10T14:17:49;6.80;;;1.60;;
83814;SDS011;73829;53.826;-3.034;2024-01-10T14:20:21;3.70;;;1.50;;
83814;SDS011;73829;53.826;-3.034;2024-01-10T14:22:52;3.20;;;1.40;;
83814;SDS011;73829;53.826;-3.034;2024-01-10T14:25:23;4.90;;;1.40;;
83814;SDS011;73829;53.826;-3.034;2024-01-10T14:27:55;3.30;;;1.20;;
83814;SDS011;73829;53.826;-3.034;2024-01-10T14:30:27;4.10;;;1.60;;
83814;SDS011;73829;53.826;-3.034;2024-01-10T14:32:59;4.20;;;1.70;;
83814;SDS011;73829;53.826;-3.034;2024-01-10T14:35:31;3.90;;;1.50;;
83814;SDS011;73829;53.826;-3.034;2024-01-10T14:38:02;4.10;;;1.20;;
83814;SDS011;73829;53.826;-3.034;2024-01-10T14:40:33;3.50;;;1.40;;
83814;SDS011;73829;53.826;-3.034;2024-01-10T14:43:04;4.10;;;1.30;;
83814;SDS011;73829;53.826;-3.034;2024-01-10T14:45:35;3.70;;;1.30;;
83814;SDS011;73829;53.826;-3.034;2024-01-10T14:48:06;3.20;;;1.10;;
83814;SDS011;73829;53.826;-3.034;2024-01-10T14:50:38;3.00;;;1.20;;
83814;SDS011;73829;53.826;-3.034;2024-01-10T14:53:09;3.20;;;1.30;;
83814;SDS011;73829;53.826;-3.034;2024-01-10T14:55:40;4.00;;;1.40;;
83814;SDS011;73829;53.826;-3.034;2024-01-10T14:58:11;2.40;;;0.90;;
83814;SDS011;73829;53.826;-3.034;2024-01-10T15:00:43;3.50;;;1.10;;
83814;SDS011;73829;53.826;-3.034;2024-01-10T15:03:15;2.60;;;1.00;;
83814;SDS011;73829;53.826;-3.034;2024-01-10T15:05:46;3.70;;;1.40;;
83814;SDS011;73829;53.826;-3.034;2024-01-10T15:08:17;3.60;;;1.10;;
83814;SDS011;73829;53.826;-3.034;2024-01-10T15:10:49;3.10;;;1.20;;
83814;SDS011;73829;53.826;-3.034;2024-01-10T15:13:20;3.90;;;1.20;;
83814;SDS011;73829;53.826;-3.034;2024-01-10T15:15:51;4.10;;;1.30;;
83814;SDS011;73829;53.826;-3.034;2024-01-10T15:18:23;3.00;;;1.00;;
83814;SDS011;73829;53.826;-3.034;2024-01-10T15:20:54;3.10;;;1.20;;
83814;SDS011;73829;53.826;-3.034;2024-01-10T15:23:25;3.10;;;1.20;;
83814;SDS011;73829;53.826;-3.034;2024-01-10T15:25:56;2.30;;;0.90;;
83814;SDS011;73829;53.826;-3.034;2024-01-10T15:28:27;3.10;;;1.00;;
83814;SDS011;73829;53.826;-3.034;2024-01-10T15:30:59;3.90;;;1.10;;
83814;SDS011;73829;53.826;-3.034;2024-01-10T15:33:30;2.70;;;0.80;;
83814;SDS011;73829;53.826;-3.034;2024-01-10T15:36:03;3.00;;;0.90;;
83814;SDS011;73829;53.826;-3.034;2024-01-10T15:38:36;2.50;;;0.90;;
83814;SDS011;73829;53.826;-3.034;2024-01-10T15:41:10;2.90;;;1.00;;
83814;SDS011;73829;53.826;-3.034;2024-01-10T15:43:41;3.10;;;0.90;;
83814;SDS011;73829;53.826;-3.034;2024-01-10T15:46:16;3.40;;;1.10;;
83814;SDS011;73829;53.826;-3.034;2024-01-10T15:48:48;3.50;;;1.10;;
83814;SDS011;73829;53.826;-3.034;2024-01-10T15:51:21;3.20;;;1.20;;
83814;SDS011;73829;53.826;-3.034;2024-01-10T15:53:52;3.30;;;1.10;;
83814;SDS011;73829;53.826;-3.034;2024-01-10T15:56:26;2.50;;;0.90;;
83814;SDS011;73829;53.826;-3.034;2024-01-10T15:58:58;3.00;;;1.00;;
83814;SDS011;73829;53.826;-3.034;2024-01-10T16:01:29;3.50;;;1.10;;
83814;SDS011;73829;53.826;-3.034;2024-01-10T16:04:02;3.10;;;1.00;;
83814;SDS011;73829;53.826;-3.034;2024-01-10T16:06:33;2.90;;;1.20;;
83814;SDS011;73829;53.826;-3.034;2024-01-10T16:09:06;3.60;;;1.30;;
83814;SDS011;73829;53.826;-3.034;2024-01-10T16:11:40;3.20;;;1.00;;
83814;SDS011;73829;53.826;-3.034;2024-01-10T16:14:12;4.50;;;1.10;;
83814;SDS011;73829;53.826;-3.034;2024-01-10T16:16:43;4.50;;;1.10;;
83814;SDS011;73829;53.826;-3.034;2024-01-10T16:19:14;3.40;;;1.00;;
83814;SDS011;73829;53.826;-3.034;2024-01-10T16:21:45;4.40;;;1.30;;
83814;SDS011;73829;53.826;-3.034;2024-01-10T16:24:16;4.40;;;1.40;;
83814;SDS011;73829;53.826;-3.034;2024-01-10T16:26:47;4.60;;;1.20;;
83814;SDS011;73829;53.826;-3.034;2024-01-10T16:29:19;4.80;;;1.40;;
83814;SDS011;73829;53.826;-3.034;2024-01-10T16:31:50;5.20;;;1.80;;
83814;SDS011;73829;53.826;-3.034;2024-01-10T16:34:21;4.50;;;1.70;;
83814;SDS011;73829;53.826;-3.034;2024-01-10T16:36:52;6.90;;;1.70;;
83814;SDS011;73829;53.826;-3.034;2024-01-10T16:39:23;5.70;;;1.60;;